Time,TemperatureF,DewpointF,PressureIn,WindDirection,WindDirectionDegrees,WindSpeedMPH,WindSpeedGustMPH,Humidity,HourlyPrecipIn,Conditions,Clouds,dailyrainin,SoftwareType,DateUTC
2013-02-02 00:12:00,17.2,4.0,30.57,SSE,160,0.0,2.0,56,0.00,,,0.00,weatherlink.com 1.10,2013-02-02 05:12:00,
2013-02-02 00:27:00,17.1,4.0,30.57,SSE,159,0.0,1.0,57,0.00,,,0.00,weatherlink.com 1.10,2013-02-02 05:27:00,
2013-02-02 00:42:00,17.2,8.0,30.57,SSE,159,1.0,2.0,66,0.00,,,0.00,weatherlink.com 1.10,2013-02-02 05:42:00,
2013-02-02 00:57:00,17.2,5.0,30.58,SSE,159,0.0,1.0,60,0.00,,,0.00,weatherlink.com 1.10,2013-02-02 05:57:00,
2013-02-02 01:12:00,17.2,8.0,30.58,SSE,160,2.0,2.0,67,0.00,,,0.00,weatherlink.com 1.10,2013-02-02 06:12:00,
2013-02-02 01:27:00,17.1,7.0,30.59,SSE,160,1.0,1.0,64,0.00,,,0.00,weatherlink.com 1.10,2013-02-02 06:27:00,
2013-02-02 01:42:00,17.1,6.0,30.58,SSE,159,1.0,1.0,62,0.00,,,0.00,weatherlink.com 1.10,2013-02-02 06:42:00,
2013-02-02 01:57:00,17.3,6.0,30.58,SSE,159,0.0,1.0,62,0.00,,,0.00,weatherlink.com 1.10,2013-02-02 06:57:00,
2013-02-02 02:12:00,17.4,6.0,30.58,SSE,158,0.0,0.0,61,0.00,,,0.00,weatherlink.com 1.10,2013-02-02 07:12:00,
2013-02-02 02:27:00,17.5,6.0,30.57,SSE,159,0.0,0.0,60,0.00,,,0.00,weatherlink.com 1.10,2013-02-02 07:27:00,
2013-02-02 02:42:00,17.7,5.0,30.57,SSE,158,0.0,0.0,58,0.00,,,0.00,weatherlink.com 1.10,2013-02-02 07:42:00,
2013-02-02 02:57:00,17.7,5.0,30.57,SSE,158,0.0,0.0,57,0.00,,,0.00,weatherlink.com 1.10,2013-02-02 07:57:00,
2013-02-02 03:12:00,17.6,7.0,30.57,SSE,158,0.0,0.0,62,0.00,,,0.00,weatherlink.com 1.10,2013-02-02 08:12:00,
2013-02-02 03:27:00,17.6,6.0,30.57,SSE,159,0.0,0.0,60,0.00,,,0.00,weatherlink.com 1.10,2013-02-02 08:27:00,
2013-02-02 03:42:00,17.6,5.0,30.57,SSE,160,0.0,0.0,58,0.00,,,0.00,weatherlink.com 1.10,2013-02-02 08:42:00,
2013-02-02 03:57:00,17.7,4.0,30.56,SSE,159,0.0,0.0,55,0.00,,,0.00,weatherlink.com 1.10,2013-02-02 08:57:00,
2013-02-02 04:12:00,17.9,6.0,30.56,SSE,159,0.0,0.0,61,0.00,,,0.00,weatherlink.com 1.10,2013-02-02 09:12:00,
2013-02-02 04:27:00,18.0,4.0,30.55,SSE,159,0.0,0.0,54,0.00,,,0.00,weatherlink.com 1.10,2013-02-02 09:27:00,
2013-02-02 04:42:00,18.2,4.0,30.55,SSE,160,0.0,0.0,55,0.00,,,0.00,weatherlink.com 1.10,2013-02-02 09:42:00,
2013-02-02 04:57:00,18.3,8.0,30.56,SSE,159,0.0,0.0,63,0.00,,,0.00,weatherlink.com 1.10,2013-02-02 09:57:00,
2013-02-02 05:12:00,18.0,6.0,30.56,SSE,160,0.0,0.0,59,0.00,,,0.00,weatherlink.com 1.10,2013-02-02 10:12:00,
2013-02-02 05:27:00,17.4,5.0,30.57,SSE,159,0.0,0.0,58,0.00,,,0.00,weatherlink.com 1.10,2013-02-02 10:27:00,
2013-02-02 05:42:00,17.3,5.0,30.57,SSE,160,0.0,0.0,60,0.00,,,0.00,weatherlink.com 1.10,2013-02-02 10:42:00,
2013-02-02 05:57:00,17.2,7.0,30.57,SSE,160,0.0,0.0,64,0.00,,,0.00,weatherlink.com 1.10,2013-02-02 10:57:00,
2013-02-02 06:12:00,16.9,4.0,30.57,SSE,159,0.0,0.0,58,0.00,,,0.00,weatherlink.com 1.10,2013-02-02 11:12:00,
2013-02-02 06:43:00,17.4,8.0,30.57,SSE,159,0.0,0.0,67,0.00,,,0.00,weatherlink.com 1.10,2013-02-02 11:43:00,
2013-02-02 07:13:00,17.4,4.0,30.58,SSE,159,0.0,0.0,56,0.00,,,0.00,weatherlink.com 1.10,2013-02-02 12:13:00,
2013-02-02 07:28:00,17.7,6.0,30.58,SSE,159,0.0,0.0,61,0.00,,,0.00,weatherlink.com 1.10,2013-02-02 12:28:00,
2013-02-02 07:43:00,17.4,5.0,30.58,SSE,159,0.0,0.0,59,0.00,,,0.00,weatherlink.com 1.10,2013-02-02 12:43:00,
2013-02-02 07:58:00,17.5,5.0,30.58,SSE,159,0.0,0.0,59,0.00,,,0.00,weatherlink.com 1.10,2013-02-02 12:58:00,
2013-02-02 08:13:00,17.8,6.0,30.58,SSE,160,0.0,0.0,59,0.00,,,0.00,weatherlink.com 1.10,2013-02-02 13:13:00,
2013-02-02 08:28:00,18.9,8.0,30.58,SSE,158,0.0,0.0,62,0.00,,,0.00,weatherlink.com 1.10,2013-02-02 13:28:00,
2013-02-02 08:43:00,19.1,8.0,30.57,SSE,160,0.0,0.0,62,0.00,,,0.00,weatherlink.com 1.10,2013-02-02 13:43:00,
2013-02-02 08:58:00,20.2,7.0,30.57,SSE,160,0.0,0.0,57,0.00,,,0.00,weatherlink.com 1.10,2013-02-02 13:58:00,
2013-02-02 09:13:00,21.0,11.0,30.57,SSE,160,0.0,0.0,66,0.00,,,0.00,weatherlink.com 1.10,2013-02-02 14:13:00,
2013-02-02 09:28:00,21.9,13.0,30.57,SE,143,0.0,0.0,68,0.00,,,0.00,weatherlink.com 1.10,2013-02-02 14:28:00,
2013-02-02 09:43:00,22.3,12.0,30.56,WNW,299,3.0,3.0,66,0.00,,,0.00,weatherlink.com 1.10,2013-02-02 14:43:00,
2013-02-02 09:58:00,22.5,14.0,30.55,East,90,0.0,2.0,69,0.00,,,0.00,weatherlink.com 1.10,2013-02-02 14:58:00,
2013-02-02 10:13:00,23.5,15.0,30.54,East,91,0.0,1.0,69,0.00,,,0.00,weatherlink.com 1.10,2013-02-02 15:13:00,
2013-02-02 10:28:00,25.5,14.0,30.54,NNW,339,1.0,3.0,62,0.00,,,0.00,weatherlink.com 1.10,2013-02-02 15:28:00,
2013-02-02 10:43:00,26.9,13.0,30.54,NW,308,1.0,3.0,57,0.00,,,0.00,weatherlink.com 1.10,2013-02-02 15:43:00,
2013-02-02 10:58:00,27.7,14.0,30.55,ENE,75,0.0,2.0,56,0.00,,,0.00,weatherlink.com 1.10,2013-02-02 15:58:00,
2013-02-02 11:13:00,28.4,15.0,30.55,NE,39,2.0,2.0,57,0.00,,,0.00,weatherlink.com 1.10,2013-02-02 16:13:00,
2013-02-02 11:28:00,28.5,15.0,30.55,NW,319,3.0,3.0,57,0.00,,,0.00,weatherlink.com 1.10,2013-02-02 16:28:00,
2013-02-02 11:43:00,29.3,16.0,30.56,ENE,78,2.0,3.0,59,0.00,,,0.00,weatherlink.com 1.10,2013-02-02 16:43:00,
2013-02-02 11:58:00,30.2,17.0,30.54,SE,136,1.0,6.0,58,0.00,,,0.00,weatherlink.com 1.10,2013-02-02 16:58:00,
2013-02-02 12:13:00,30.1,16.0,30.53,West,270,0.0,6.0,57,0.00,,,0.00,weatherlink.com 1.10,2013-02-02 17:13:00,
2013-02-02 12:28:00,29.4,24.0,30.52,WNW,302,0.0,7.0,81,0.00,,,0.00,weatherlink.com 1.10,2013-02-02 17:28:00,
2013-02-02 12:43:00,30.4,25.0,30.51,West,281,1.0,6.0,81,0.00,,,0.00,weatherlink.com 1.10,2013-02-02 17:43:00,
2013-02-02 12:58:00,29.2,25.0,30.50,North,353,0.0,3.0,84,0.00,,,0.00,weatherlink.com 1.10,2013-02-02 17:58:00,
2013-02-02 13:13:00,28.4,25.0,30.48,North,349,1.0,5.0,87,0.00,,,0.00,weatherlink.com 1.10,2013-02-02 18:13:00,
2013-02-02 13:29:00,27.1,25.0,30.47,NE,41,2.0,4.0,90,0.00,,,0.00,weatherlink.com 1.10,2013-02-02 18:29:00,
2013-02-02 13:44:00,25.9,24.0,30.45,NE,35,1.0,3.0,92,0.00,,,0.00,weatherlink.com 1.10,2013-02-02 18:44:00,
2013-02-02 13:59:00,26.0,24.0,30.45,North,4,0.0,2.0,93,0.00,,,0.00,weatherlink.com 1.10,2013-02-02 18:59:00,
2013-02-02 14:14:00,26.1,25.0,30.44,NW,307,0.0,1.0,94,0.00,,,0.00,weatherlink.com 1.10,2013-02-02 19:14:00,
2013-02-02 14:29:00,25.8,24.0,30.43,ENE,71,1.0,2.0,93,0.00,,,0.00,weatherlink.com 1.10,2013-02-02 19:29:00,
2013-02-02 14:44:00,25.6,24.0,30.42,NNE,25,1.0,2.0,94,0.00,,,0.00,weatherlink.com 1.10,2013-02-02 19:44:00,
2013-02-02 14:59:00,25.8,24.0,30.41,NNW,333,1.0,2.0,94,0.00,,,0.00,weatherlink.com 1.10,2013-02-02 19:59:00,
2013-02-02 15:29:00,26.0,25.0,30.40,NNE,12,0.0,1.0,94,0.00,,,0.00,weatherlink.com 1.10,2013-02-02 20:29:00,
2013-02-02 15:59:00,26.4,25.0,30.39,North,6,0.0,0.0,95,0.00,,,0.00,weatherlink.com 1.10,2013-02-02 20:59:00,
2013-02-02 16:14:00,26.5,25.0,30.38,ENE,74,4.0,5.0,95,0.00,,,0.00,weatherlink.com 1.10,2013-02-02 21:14:00,
2013-02-02 16:29:00,26.4,25.0,30.38,ENE,69,0.0,6.0,95,0.00,,,0.00,weatherlink.com 1.10,2013-02-02 21:29:00,
2013-02-02 16:44:00,26.6,26.0,30.38,North,11,0.0,1.0,96,0.00,,,0.00,weatherlink.com 1.10,2013-02-02 21:44:00,
2013-02-02 16:59:00,26.5,25.0,30.38,North,9,0.0,2.0,95,0.00,,,0.00,weatherlink.com 1.10,2013-02-02 21:59:00,
2013-02-02 17:14:00,26.6,26.0,30.37,East,84,0.0,3.0,96,0.00,,,0.00,weatherlink.com 1.10,2013-02-02 22:14:00,
2013-02-02 17:29:00,26.6,26.0,30.37,WNW,287,0.0,2.0,96,0.00,,,0.00,weatherlink.com 1.10,2013-02-02 22:29:00,
2013-02-02 17:44:00,26.6,26.0,30.36,WNW,290,0.0,1.0,96,0.00,,,0.00,weatherlink.com 1.10,2013-02-02 22:44:00,
2013-02-02 17:59:00,26.5,26.0,30.36,West,269,0.0,2.0,96,0.00,,,0.00,weatherlink.com 1.10,2013-02-02 22:59:00,
2013-02-02 18:14:00,26.6,26.0,30.37,SSE,160,0.0,0.0,96,0.00,,,0.00,weatherlink.com 1.10,2013-02-02 23:14:00,
2013-02-02 18:29:00,28.0,27.0,30.36,SSW,203,0.0,1.0,97,0.00,,,0.00,weatherlink.com 1.10,2013-02-02 23:29:00,
2013-02-02 18:44:00,29.9,29.0,30.36,West,278,1.0,2.0,98,0.00,,,0.00,weatherlink.com 1.10,2013-02-02 23:44:00,
2013-02-02 18:59:00,30.5,30.0,30.36,SW,233,0.0,2.0,98,0.00,,,0.00,weatherlink.com 1.10,2013-02-02 23:59:00,
2013-02-02 19:14:00,30.8,30.0,30.36,SW,219,0.0,4.0,96,0.00,,,0.00,weatherlink.com 1.10,2013-02-03 00:14:00,
2013-02-02 19:29:00,30.9,30.0,30.36,SW,218,0.0,2.0,96,0.00,,,0.00,weatherlink.com 1.10,2013-02-03 00:29:00,
2013-02-02 19:44:00,30.9,30.0,30.36,WSW,240,0.0,1.0,96,0.00,,,0.00,weatherlink.com 1.10,2013-02-03 00:44:00,
2013-02-02 19:59:00,30.8,30.0,30.37,WNW,290,0.0,1.0,96,0.00,,,0.00,weatherlink.com 1.10,2013-02-03 00:59:00,
2013-02-02 20:14:00,30.6,29.0,30.37,NNE,13,0.0,1.0,94,0.00,,,0.00,weatherlink.com 1.10,2013-02-03 01:14:00,
2013-02-02 20:44:00,30.5,30.0,30.36,WSW,248,0.0,3.0,96,0.00,,,0.00,weatherlink.com 1.10,2013-02-03 01:44:00,
2013-02-02 20:59:00,30.0,29.0,30.36,WNW,295,0.0,1.0,95,0.00,,,0.00,weatherlink.com 1.10,2013-02-03 01:59:00,
2013-02-02 21:14:00,29.1,28.0,30.36,SSE,165,0.0,1.0,95,0.00,,,0.00,weatherlink.com 1.10,2013-02-03 02:14:00,
2013-02-02 21:29:00,28.3,27.0,30.37,South,169,0.0,2.0,96,0.00,,,0.00,weatherlink.com 1.10,2013-02-03 02:29:00,
2013-02-02 21:59:00,29.2,29.0,30.36,SE,146,0.0,0.0,97,0.00,,,0.00,weatherlink.com 1.10,2013-02-03 02:59:00,
2013-02-02 22:14:00,29.8,29.0,30.36,East,86,1.0,2.0,97,0.00,,,0.00,weatherlink.com 1.10,2013-02-03 03:14:00,
2013-02-02 22:29:00,29.9,29.0,30.36,East,79,0.0,2.0,96,0.00,,,0.00,weatherlink.com 1.10,2013-02-03 03:29:00,
2013-02-02 22:44:00,30.3,29.0,30.35,ESE,120,2.0,2.0,96,0.00,,,0.00,weatherlink.com 1.10,2013-02-03 03:44:00,
2013-02-02 22:59:00,30.7,30.0,30.35,ESE,120,1.0,2.0,95,0.00,,,0.00,weatherlink.com 1.10,2013-02-03 03:59:00,
2013-02-02 23:14:00,30.6,29.0,30.34,East,101,1.0,1.0,95,0.00,,,0.00,weatherlink.com 1.10,2013-02-03 04:14:00,
2013-02-02 23:29:00,30.6,29.0,30.34,SSE,159,0.0,0.0,94,0.00,,,0.00,weatherlink.com 1.10,2013-02-03 04:29:00,
2013-02-02 23:44:00,30.6,29.0,30.33,West,270,0.0,1.0,94,0.00,,,0.00,weatherlink.com 1.10,2013-02-03 04:44:00,
2013-02-02 23:59:00,30.8,29.0,30.32,NNW,329,2.0,2.0,92,0.00,,,0.00,weatherlink.com 1.10,2013-02-03 04:59:00,